sensor_id;sensor_type;location;lat;lon;timestamp;temperature;humidity
37342;DHT22;58643;49.052;8.518;2023-08-07T10:46:20;18.50;99.90
37342;DHT22;58643;49.052;8.518;2023-08-07T10:48:48;19.60;99.90
37342;DHT22;58643;49.052;8.518;2023-08-07T10:51:19;20.20;99.90
37342;DHT22;58643;49.052;8.518;2023-08-07T10:53:47;19.50;99.90
37342;DHT22;58643;49.052;8.518;2023-08-07T10:56:18;19.40;99.90
37342;DHT22;58643;49.052;8.518;2023-08-07T10:58:50;19.30;99.90
37342;DHT22;58643;49.052;8.518;2023-08-07T11:04:05;17.50;99.90
37342;DHT22;58643;49.052;8.518;2023-08-07T11:06:32;17.00;99.90
37342;DHT22;58643;49.052;8.518;2023-08-07T11:09:16;16.80;99.90
37342;DHT22;58643;49.052;8.518;2023-08-07T11:11:44;16.40;99.90
37342;DHT22;58643;49.052;8.518;2023-08-07T11:16:40;16.20;99.90
37342;DHT22;58643;49.052;8.518;2023-08-07T11:19:06;16.30;99.90
37342;DHT22;58643;49.052;8.518;2023-08-07T11:21:32;18.60;99.90
37342;DHT22;58643;49.052;8.518;2023-08-07T11:23:58;17.20;99.90
37342;DHT22;58643;49.052;8.518;2023-08-07T11:26:24;17.10;99.90
37342;DHT22;58643;49.052;8.518;2023-08-07T11:28:51;16.00;99.90
37342;DHT22;58643;49.052;8.518;2023-08-07T11:31:18;19.10;99.90
37342;DHT22;58643;49.052;8.518;2023-08-07T11:33:44;16.00;99.90
37342;DHT22;58643;49.052;8.518;2023-08-07T11:36:11;15.90;99.90
37342;DHT22;58643;49.052;8.518;2023-08-07T11:41:05;15.80;99.90
37342;DHT22;58643;49.052;8.518;2023-08-07T11:43:32;15.80;99.90
37342;DHT22;58643;49.052;8.518;2023-08-07T11:45:59;16.80;99.90
37342;DHT22;58643;49.052;8.518;2023-08-07T11:48:27;15.60;99.90
37342;DHT22;58643;49.052;8.518;2023-08-07T11:50:54;16.00;99.90
37342;DHT22;58643;49.052;8.518;2023-08-07T11:53:21;15.80;99.90
37342;DHT22;58643;49.052;8.518;2023-08-07T11:55:55;16.10;99.90
37342;DHT22;58643;49.052;8.518;2023-08-07T11:58:22;15.90;99.90
37342;DHT22;58643;49.052;8.518;2023-08-07T12:00:49;18.10;99.90
37342;DHT22;58643;49.052;8.518;2023-08-07T12:03:29;16.40;99.90
37342;DHT22;58643;49.052;8.518;2023-08-07T12:05:58;16.60;99.90
37342;DHT22;58643;49.052;8.518;2023-08-07T12:08:38;16.70;99.90
37342;DHT22;58643;49.052;8.518;2023-08-07T12:11:05;17.50;99.90
37342;DHT22;58643;49.052;8.518;2023-08-07T12:13:31;18.30;99.90
37342;DHT22;58643;49.052;8.518;2023-08-07T12:16:01;18.80;99.90
37342;DHT22;58643;49.052;8.518;2023-08-07T12:18:29;18.90;99.90
37342;DHT22;58643;49.052;8.518;2023-08-07T12:21:00;18.50;99.90
37342;DHT22;58643;49.052;8.518;2023-08-07T12:23:26;19.00;99.90
37342;DHT22;58643;49.052;8.518;2023-08-07T12:25:52;21.00;99.90
37342;DHT22;58643;49.052;8.518;2023-08-07T12:28:18;19.40;99.90
37342;DHT22;58643;49.052;8.518;2023-08-07T12:30:48;19.50;99.90
37342;DHT22;58643;49.052;8.518;2023-08-07T12:33:14;20.40;99.90
37342;DHT22;58643;49.052;8.518;2023-08-07T12:35:40;21.10;99.90
37342;DHT22;58643;49.052;8.518;2023-08-07T12:38:06;21.10;99.50
37342;DHT22;58643;49.052;8.518;2023-08-07T12:40:32;20.60;99.90
37342;DHT22;58643;49.052;8.518;2023-08-07T12:42:58;20.60;99.90
37342;DHT22;58643;49.052;8.518;2023-08-07T12:45:24;20.40;99.90
37342;DHT22;58643;49.052;8.518;2023-08-07T12:47:50;20.60;99.90
37342;DHT22;58643;49.052;8.518;2023-08-07T12:50:16;21.10;99.90
37342;DHT22;58643;49.052;8.518;2023-08-07T12:52:42;20.70;99.90
37342;DHT22;58643;49.052;8.518;2023-08-07T12:55:08;21.80;99.10
37342;DHT22;58643;49.052;8.518;2023-08-07T12:57:34;22.10;97.70
37342;DHT22;58643;49.052;8.518;2023-08-07T12:59:59;21.00;97.10
37342;DHT22;58643;49.052;8.518;2023-08-07T13:02:25;22.10;98.90
37342;DHT22;58643;49.052;8.518;2023-08-07T13:04:50;21.30;97.30
37342;DHT22;58643;49.052;8.518;2023-08-07T13:07:17;22.30;97.00
37342;DHT22;58643;49.052;8.518;2023-08-07T13:09:43;22.80;96.30
37342;DHT22;58643;49.052;8.518;2023-08-07T13:12:08;24.10;94.50
37342;DHT22;58643;49.052;8.518;2023-08-07T13:14:34;22.80;93.90
37342;DHT22;58643;49.052;8.518;2023-08-07T13:17:00;22.20;94.50
37342;DHT22;58643;49.052;8.518;2023-08-07T13:19:25;21.70;95.10
37342;DHT22;58643;49.052;8.518;2023-08-07T13:21:51;21.00;96.20
37342;DHT22;58643;49.052;8.518;2023-08-07T13:24:16;21.40;98.00
37342;DHT22;58643;49.052;8.518;2023-08-07T13:26:42;20.30;97.40
37342;DHT22;58643;49.052;8.518;2023-08-07T13:29:13;19.80;97.90
37342;DHT22;58643;49.052;8.518;2023-08-07T13:31:39;19.00;97.00
37342;DHT22;58643;49.052;8.518;2023-08-07T13:34:07;20.10;96.60
37342;DHT22;58643;49.052;8.518;2023-08-07T13:36:37;21.10;96.50
37342;DHT22;58643;49.052;8.518;2023-08-07T13:39:05;22.90;93.60
37342;DHT22;58643;49.052;8.518;2023-08-07T13:41:32;23.90;91.40
37342;DHT22;58643;49.052;8.518;2023-08-07T13:43:58;24.00;90.30
37342;DHT22;58643;49.052;8.518;2023-08-07T13:46:24;24.10;90.50
37342;DHT22;58643;49.052;8.518;2023-08-07T13:48:50;23.20;88.70
37342;DHT22;58643;49.052;8.518;2023-08-07T13:51:15;22.50;90.10
37342;DHT22;58643;49.052;8.518;2023-08-07T13:53:42;22.70;91.70
37342;DHT22;58643;49.052;8.518;2023-08-07T13:56:07;21.80;93.20
37342;DHT22;58643;49.052;8.518;2023-08-07T13:58:36;22.30;93.20
37342;DHT22;58643;49.052;8.518;2023-08-07T14:01:02;21.20;94.00
37342;DHT22;58643;49.052;8.518;2023-08-07T14:03:27;21.80;93.90
37342;DHT22;58643;49.052;8.518;2023-08-07T14:05:53;22.00;95.30
37342;DHT22;58643;49.052;8.518;2023-08-07T14:08:19;21.80;96.50
37342;DHT22;58643;49.052;8.518;2023-08-07T14:10:44;20.70;96.70
37342;DHT22;58643;49.052;8.518;2023-08-07T14:13:10;20.80;97.60
37342;DHT22;58643;49.052;8.518;2023-08-07T14:15:37;22.40;96.70
37342;DHT22;58643;49.052;8.518;2023-08-07T14:18:02;21.20;96.30
37342;DHT22;58643;49.052;8.518;2023-08-07T14:20:28;21.40;96.40
37342;DHT22;58643;49.052;8.518;2023-08-07T14:22:54;23.10;94.90
37342;DHT22;58643;49.052;8.518;2023-08-07T14:25:20;23.00;93.90
37342;DHT22;58643;49.052;8.518;2023-08-07T14:27:49;22.50;93.70
37342;DHT22;58643;49.052;8.518;2023-08-07T14:30:15;21.60;95.00
37342;DHT22;58643;49.052;8.518;2023-08-07T14:32:40;21.20;95.60
37342;DHT22;58643;49.052;8.518;2023-08-07T14:35:08;21.00;96.20
37342;DHT22;58643;49.052;8.518;2023-08-07T14:37:33;20.50;97.20
37342;DHT22;58643;49.052;8.518;2023-08-07T14:39:59;20.50;97.70
37342;DHT22;58643;49.052;8.518;2023-08-07T14:42:24;22.00;97.00
37342;DHT22;58643;49.052;8.518;2023-08-07T14:44:50;21.30;96.50
37342;DHT22;58643;49.052;8.518;2023-08-07T14:47:16;20.60;96.90
37342;DHT22;58643;49.052;8.518;2023-08-07T14:49:41;20.20;98.00
37342;DHT22;58643;49.052;8.518;2023-08-07T14:52:07;20.00;98.90
37342;DHT22;58643;49.052;8.518;2023-08-07T14:54:33;20.50;98.90
37342;DHT22;58643;49.052;8.518;2023-08-07T14:56:58;20.90;98.10
37342;DHT22;58643;49.052;8.518;2023-08-07T14:59:25;22.50;95.60
37342;DHT22;58643;49.052;8.518;2023-08-07T15:01:51;23.20;93.80
37342;DHT22;58643;49.052;8.518;2023-08-07T15:04:16;24.30;93.60
37342;DHT22;58643;49.052;8.518;2023-08-07T15:06:42;23.20;92.80
37342;DHT22;58643;49.052;8.518;2023-08-07T15:09:08;24.40;92.20
37342;DHT22;58643;49.052;8.518;2023-08-07T15:11:34;24.60;91.40
37342;DHT22;58643;49.052;8.518;2023-08-07T15:14:00;24.30;90.70
37342;DHT22;58643;49.052;8.518;2023-08-07T15:16:27;23.80;91.90
37342;DHT22;58643;49.052;8.518;2023-08-07T15:18:52;22.40;93.60
37342;DHT22;58643;49.052;8.518;2023-08-07T15:21:18;21.70;94.50
37342;DHT22;58643;49.052;8.518;2023-08-07T15:23:44;21.30;95.40
37342;DHT22;58643;49.052;8.518;2023-08-07T15:26:10;21.60;97.00
37342;DHT22;58643;49.052;8.518;2023-08-07T15:28:35;21.10;97.20
37342;DHT22;58643;49.052;8.518;2023-08-07T15:31:01;21.70;95.30
37342;DHT22;58643;49.052;8.518;2023-08-07T15:33:26;22.80;93.60
37342;DHT22;58643;49.052;8.518;2023-08-07T15:35:55;23.20;94.60
37342;DHT22;58643;49.052;8.518;2023-08-07T15:38:21;23.00;94.40
37342;DHT22;58643;49.052;8.518;2023-08-07T15:40:46;22.40;94.30
37342;DHT22;58643;49.052;8.518;2023-08-07T15:43:12;21.20;95.20
37342;DHT22;58643;49.052;8.518;2023-08-07T15:45:37;20.90;96.70
37342;DHT22;58643;49.052;8.518;2023-08-07T15:48:03;20.50;96.90
37342;DHT22;58643;49.052;8.518;2023-08-07T15:50:30;20.60;96.20
37342;DHT22;58643;49.052;8.518;2023-08-07T15:53:00;21.40;96.30
37342;DHT22;58643;49.052;8.518;2023-08-07T15:55:26;22.60;95.20
37342;DHT22;58643;49.052;8.518;2023-08-07T15:57:52;23.60;93.60
37342;DHT22;58643;49.052;8.518;2023-08-07T16:00:18;24.10;92.20
37342;DHT22;58643;49.052;8.518;2023-08-07T16:02:43;24.30;91.50
37342;DHT22;58643;49.052;8.518;2023-08-07T16:05:09;24.30;91.00
37342;DHT22;58643;49.052;8.518;2023-08-07T16:07:35;25.00;90.60
37342;DHT22;58643;49.052;8.518;2023-08-07T16:10:00;24.90;88.40
37342;DHT22;58643;49.052;8.518;2023-08-07T16:12:26;24.10;87.90
37342;DHT22;58643;49.052;8.518;2023-08-07T16:14:52;23.40;89.20
37342;DHT22;58643;49.052;8.518;2023-08-07T16:17:17;24.10;87.30
37342;DHT22;58643;49.052;8.518;2023-08-07T16:19:43;24.00;87.70
37342;DHT22;58643;49.052;8.518;2023-08-07T16:22:09;24.00;86.70
37342;DHT22;58643;49.052;8.518;2023-08-07T16:24:34;24.00;88.30
37342;DHT22;58643;49.052;8.518;2023-08-07T16:27:00;24.20;88.40
37342;DHT22;58643;49.052;8.518;2023-08-07T16:29:25;24.50;86.00
37342;DHT22;58643;49.052;8.518;2023-08-07T16:31:51;24.20;87.80
37342;DHT22;58643;49.052;8.518;2023-08-07T16:34:17;22.50;90.30
37342;DHT22;58643;49.052;8.518;2023-08-07T16:36:43;21.70;92.10
37342;DHT22;58643;49.052;8.518;2023-08-07T16:39:08;21.50;93.10
37342;DHT22;58643;49.052;8.518;2023-08-07T16:41:34;20.60;94.00
